sensor_id;sensor_type;location;lat;lon;timestamp;P1;durP1;ratioP1;P2;durP2;ratioP2
54947;SDS011;41113;41.882;12.530;2022-11-15T00:01:36;27.00;;;19.40;;
54947;SDS011;41113;41.882;12.530;2022-11-15T00:04:03;25.52;;;18.65;;
54947;SDS011;41113;41.882;12.530;2022-11-15T00:06:29;27.60;;;18.20;;
54947;SDS011;41113;41.882;12.530;2022-11-15T00:08:57;24.67;;;17.02;;
54947;SDS011;41113;41.882;12.530;2022-11-15T00:11:23;25.58;;;17.30;;
54947;SDS011;41113;41.882;12.530;2022-11-15T00:13:48;24.20;;;18.70;;
54947;SDS011;41113;41.882;12.530;2022-11-15T00:16:14;26.27;;;17.75;;
54947;SDS011;41113;41.882;12.530;2022-11-15T00:18:39;27.13;;;17.77;;
54947;SDS011;41113;41.882;12.530;2022-11-15T00:21:06;26.27;;;18.60;;
54947;SDS011;41113;41.882;12.530;2022-11-15T00:23:34;26.13;;;17.58;;
54947;SDS011;41113;41.882;12.530;2022-11-15T00:26:00;24.40;;;16.73;;
54947;SDS011;41113;41.882;12.530;2022-11-15T00:28:25;26.50;;;17.83;;
54947;SDS011;41113;41.882;12.530;2022-11-15T00:30:51;27.05;;;17.65;;
54947;SDS011;41113;41.882;12.530;2022-11-15T00:33:17;26.17;;;18.38;;
54947;SDS011;41113;41.882;12.530;2022-11-15T00:35:42;22.85;;;17.40;;
54947;SDS011;41113;41.882;12.530;2022-11-15T00:38:08;26.23;;;18.25;;
54947;SDS011;41113;41.882;12.530;2022-11-15T00:40:33;27.48;;;18.50;;
54947;SDS011;41113;41.882;12.530;2022-11-15T00:42:59;27.63;;;18.55;;
54947;SDS011;41113;41.882;12.530;2022-11-15T00:45:24;28.42;;;20.33;;
54947;SDS011;41113;41.882;12.530;2022-11-15T00:47:50;27.10;;;19.15;;
54947;SDS011;41113;41.882;12.530;2022-11-15T00:50:16;25.77;;;18.80;;
54947;SDS011;41113;41.882;12.530;2022-11-15T00:52:42;26.65;;;18.77;;
54947;SDS011;41113;41.882;12.530;2022-11-15T00:55:09;27.98;;;19.45;;
54947;SDS011;41113;41.882;12.530;2022-11-15T00:57:40;27.80;;;20.05;;
54947;SDS011;41113;41.882;12.530;2022-11-15T01:00:05;27.85;;;19.65;;
54947;SDS011;41113;41.882;12.530;2022-11-15T01:02:32;29.08;;;20.60;;
54947;SDS011;41113;41.882;12.530;2022-11-15T01:04:57;26.10;;;19.65;;
54947;SDS011;41113;41.882;12.530;2022-11-15T01:07:22;29.45;;;20.40;;
54947;SDS011;41113;41.882;12.530;2022-11-15T01:09:48;28.70;;;19.83;;
54947;SDS011;41113;41.882;12.530;2022-11-15T01:12:13;28.88;;;19.63;;
54947;SDS011;41113;41.882;12.530;2022-11-15T01:14:39;25.20;;;17.48;;
54947;SDS011;41113;41.882;12.530;2022-11-15T01:17:04;25.17;;;17.70;;
54947;SDS011;41113;41.882;12.530;2022-11-15T01:19:29;29.90;;;18.42;;
54947;SDS011;41113;41.882;12.530;2022-11-15T01:21:55;24.73;;;18.02;;
54947;SDS011;41113;41.882;12.530;2022-11-15T01:24:20;25.05;;;16.88;;
54947;SDS011;41113;41.882;12.530;2022-11-15T01:26:45;26.55;;;16.42;;
54947;SDS011;41113;41.882;12.530;2022-11-15T01:29:11;28.77;;;17.35;;
54947;SDS011;41113;41.882;12.530;2022-11-15T01:31:36;24.00;;;16.08;;
54947;SDS011;41113;41.882;12.530;2022-11-15T01:34:02;24.98;;;16.42;;
54947;SDS011;41113;41.882;12.530;2022-11-15T01:36:27;25.88;;;17.20;;
54947;SDS011;41113;41.882;12.530;2022-11-15T01:38:53;24.80;;;17.67;;
54947;SDS011;41113;41.882;12.530;2022-11-15T01:41:21;24.45;;;18.08;;
54947;SDS011;41113;41.882;12.530;2022-11-15T01:43:57;25.60;;;16.73;;
54947;SDS011;41113;41.882;12.530;2022-11-15T01:46:52;24.00;;;16.67;;
54947;SDS011;41113;41.882;12.530;2022-11-15T01:49:18;23.27;;;17.27;;
54947;SDS011;41113;41.882;12.530;2022-11-15T01:51:45;26.13;;;16.60;;
54947;SDS011;41113;41.882;12.530;2022-11-15T01:54:13;23.38;;;16.15;;
54947;SDS011;41113;41.882;12.530;2022-11-15T01:56:43;25.50;;;16.90;;
54947;SDS011;41113;41.882;12.530;2022-11-15T01:59:14;24.67;;;16.05;;
54947;SDS011;41113;41.882;12.530;2022-11-15T02:01:40;25.27;;;16.73;;
54947;SDS011;41113;41.882;12.530;2022-11-15T02:04:09;22.45;;;16.52;;
54947;SDS011;41113;41.882;12.530;2022-11-15T02:06:36;25.35;;;16.90;;
54947;SDS011;41113;41.882;12.530;2022-11-15T02:09:02;23.10;;;16.20;;
54947;SDS011;41113;41.882;12.530;2022-11-15T02:11:28;26.10;;;17.83;;
54947;SDS011;41113;41.882;12.530;2022-11-15T02:13:54;24.90;;;16.73;;
54947;SDS011;41113;41.882;12.530;2022-11-15T02:16:29;24.42;;;16.08;;
54947;SDS011;41113;41.882;12.530;2022-11-15T02:19:47;23.02;;;14.95;;
54947;SDS011;41113;41.882;12.530;2022-11-15T02:22:11;24.95;;;16.95;;
54947;SDS011;41113;41.882;12.530;2022-11-15T02:35:30;22.70;;;15.63;;
54947;SDS011;41113;41.882;12.530;2022-11-15T02:37:57;21.33;;;14.05;;
54947;SDS011;41113;41.882;12.530;2022-11-15T02:43:10;21.35;;;14.38;;
54947;SDS011;41113;41.882;12.530;2022-11-15T02:45:58;20.25;;;14.38;;
54947;SDS011;41113;41.882;12.530;2022-11-15T02:48:29;21.33;;;14.95;;
54947;SDS011;41113;41.882;12.530;2022-11-15T02:50:57;23.98;;;15.00;;
54947;SDS011;41113;41.882;12.530;2022-11-15T02:53:24;23.10;;;16.00;;
54947;SDS011;41113;41.882;12.530;2022-11-15T02:55:50;22.83;;;14.55;;
54947;SDS011;41113;41.882;12.530;2022-11-15T03:11:39;21.90;;;15.15;;
54947;SDS011;41113;41.882;12.530;2022-11-15T03:16:57;21.67;;;14.63;;
54947;SDS011;41113;41.882;12.530;2022-11-15T03:19:50;22.30;;;14.70;;
54947;SDS011;41113;41.882;12.530;2022-11-15T03:22:19;23.13;;;14.00;;
54947;SDS011;41113;41.882;12.530;2022-11-15T03:24:50;19.35;;;13.75;;
54947;SDS011;41113;41.882;12.530;2022-11-15T03:27:20;20.90;;;13.75;;
54947;SDS011;41113;41.882;12.530;2022-11-15T03:29:59;17.67;;;12.43;;
54947;SDS011;41113;41.882;12.530;2022-11-15T03:32:29;20.38;;;12.82;;
54947;SDS011;41113;41.882;12.530;2022-11-15T03:35:12;20.17;;;13.07;;
54947;SDS011;41113;41.882;12.530;2022-11-15T03:37:44;18.67;;;12.52;;
54947;SDS011;41113;41.882;12.530;2022-11-15T03:40:16;16.60;;;11.15;;
54947;SDS011;41113;41.882;12.530;2022-11-15T03:42:44;17.85;;;11.60;;
54947;SDS011;41113;41.882;12.530;2022-11-15T03:45:18;15.93;;;11.00;;
54947;SDS011;41113;41.882;12.530;2022-11-15T03:47:53;14.52;;;9.43;;
54947;SDS011;41113;41.882;12.530;2022-11-15T03:50:43;17.70;;;10.48;;
54947;SDS011;41113;41.882;12.530;2022-11-15T03:53:10;16.77;;;10.02;;
54947;SDS011;41113;41.882;12.530;2022-11-15T03:55:38;16.10;;;10.35;;
54947;SDS011;41113;41.882;12.530;2022-11-15T03:58:03;16.35;;;10.70;;
54947;SDS011;41113;41.882;12.530;2022-11-15T04:00:29;18.77;;;11.02;;
54947;SDS011;41113;41.882;12.530;2022-11-15T04:02:55;16.75;;;10.35;;
54947;SDS011;41113;41.882;12.530;2022-11-15T04:05:21;16.60;;;10.60;;
54947;SDS011;41113;41.882;12.530;2022-11-15T04:07:46;16.40;;;10.27;;
54947;SDS011;41113;41.882;12.530;2022-11-15T04:10:12;15.98;;;10.73;;
54947;SDS011;41113;41.882;12.530;2022-11-15T04:12:42;16.25;;;10.18;;
54947;SDS011;41113;41.882;12.530;2022-11-15T04:15:12;15.18;;;9.55;;
54947;SDS011;41113;41.882;12.530;2022-11-15T04:20:05;16.60;;;9.75;;
54947;SDS011;41113;41.882;12.530;2022-11-15T04:23:01;15.30;;;10.35;;
54947;SDS011;41113;41.882;12.530;2022-11-15T04:25:48;15.57;;;9.63;;
54947;SDS011;41113;41.882;12.530;2022-11-15T04:28:15;15.45;;;9.10;;
54947;SDS011;41113;41.882;12.530;2022-11-15T04:30:41;13.18;;;8.73;;
54947;SDS011;41113;41.882;12.530;2022-11-15T04:33:07;14.65;;;8.93;;
54947;SDS011;41113;41.882;12.530;2022-11-15T04:35:32;13.63;;;8.25;;
54947;SDS011;41113;41.882;12.530;2022-11-15T04:37:58;14.07;;;8.68;;
54947;SDS011;41113;41.882;12.530;2022-11-15T04:40:23;13.10;;;7.45;;
54947;SDS011;41113;41.882;12.530;2022-11-15T04:42:49;13.95;;;8.07;;
54947;SDS011;41113;41.882;12.530;2022-11-15T04:45:14;12.82;;;7.47;;
54947;SDS011;41113;41.882;12.530;2022-11-15T04:47:40;13.20;;;7.65;;
54947;SDS011;41113;41.882;12.530;2022-11-15T04:50:08;13.25;;;7.20;;
54947;SDS011;41113;41.882;12.530;2022-11-15T04:52:37;12.43;;;7.53;;
54947;SDS011;41113;41.882;12.530;2022-11-15T04:55:03;13.25;;;7.43;;
54947;SDS011;41113;41.882;12.530;2022-11-15T04:57:28;12.18;;;6.93;;
54947;SDS011;41113;41.882;12.530;2022-11-15T04:59:53;11.73;;;6.78;;
54947;SDS011;41113;41.882;12.530;2022-11-15T05:02:19;14.88;;;8.55;;
54947;SDS011;41113;41.882;12.530;2022-11-15T05:04:44;14.57;;;8.55;;
54947;SDS011;41113;41.882;12.530;2022-11-15T05:07:10;16.45;;;8.88;;
54947;SDS011;41113;41.882;12.530;2022-11-15T05:09:35;15.10;;;9.23;;
54947;SDS011;41113;41.882;12.530;2022-11-15T05:12:00;17.20;;;9.73;;
54947;SDS011;41113;41.882;12.530;2022-11-15T05:14:26;16.30;;;9.55;;
54947;SDS011;41113;41.882;12.530;2022-11-15T05:16:51;15.57;;;9.85;;
54947;SDS011;41113;41.882;12.530;2022-11-15T05:19:17;15.52;;;9.00;;
54947;SDS011;41113;41.882;12.530;2022-11-15T05:21:42;17.42;;;9.38;;
54947;SDS011;41113;41.882;12.530;2022-11-15T05:24:09;13.43;;;7.80;;
54947;SDS011;41113;41.882;12.530;2022-11-15T05:26:36;13.85;;;8.43;;
54947;SDS011;41113;41.882;12.530;2022-11-15T05:29:01;14.95;;;8.27;;
54947;SDS011;41113;41.882;12.530;2022-11-15T05:31:27;13.77;;;7.90;;
54947;SDS011;41113;41.882;12.530;2022-11-15T05:33:53;14.00;;;8.77;;
54947;SDS011;41113;41.882;12.530;2022-11-15T05:36:21;13.93;;;8.02;;
54947;SDS011;41113;41.882;12.530;2022-11-15T05:38:59;14.23;;;8.13;;
54947;SDS011;41113;41.882;12.530;2022-11-15T05:41:26;13.98;;;8.10;;
54947;SDS011;41113;41.882;12.530;2022-11-15T05:43:57;15.65;;;8.98;;
54947;SDS011;41113;41.882;12.530;2022-11-15T05:46:23;14.98;;;9.25;;
54947;SDS011;41113;41.882;12.530;2022-11-15T05:48:49;15.40;;;8.98;;
54947;SDS011;41113;41.882;12.530;2022-11-15T05:51:17;13.90;;;9.10;;
54947;SDS011;41113;41.882;12.530;2022-11-15T05:53:45;15.03;;;9.43;;
54947;SDS011;41113;41.882;12.530;2022-11-15T05:56:12;14.18;;;8.57;;
54947;SDS011;41113;41.882;12.530;2022-11-15T05:58:37;14.07;;;8.48;;
54947;SDS011;41113;41.882;12.530;2022-11-15T06:01:03;16.20;;;9.27;;
54947;SDS011;41113;41.882;12.530;2022-11-15T06:03:28;16.63;;;9.45;;
54947;SDS011;41113;41.882;12.530;2022-11-15T06:05:53;16.73;;;9.88;;
54947;SDS011;41113;41.882;12.530;2022-11-15T06:08:19;14.95;;;9.73;;
54947;SDS011;41113;41.882;12.530;2022-11-15T06:10:44;17.40;;;9.98;;
54947;SDS011;41113;41.882;12.530;2022-11-15T06:13:09;16.80;;;10.15;;
54947;SDS011;41113;41.882;12.530;2022-11-15T06:15:35;16.77;;;10.18;;
54947;SDS011;41113;41.882;12.530;2022-11-15T06:18:00;15.80;;;9.80;;
54947;SDS011;41113;41.882;12.530;2022-11-15T06:20:27;17.02;;;10.45;;
54947;SDS011;41113;41.882;12.530;2022-11-15T06:23:00;18.67;;;11.60;;
54947;SDS011;41113;41.882;12.530;2022-11-15T06:25:27;16.80;;;11.07;;
54947;SDS011;41113;41.882;12.530;2022-11-15T06:27:54;15.65;;;10.43;;
54947;SDS011;41113;41.882;12.530;2022-11-15T06:30:20;21.08;;;11.65;;
54947;SDS011;41113;41.882;12.530;2022-11-15T06:32:47;17.15;;;11.18;;
54947;SDS011;41113;41.882;12.530;2022-11-15T06:35:13;19.75;;;12.02;;
54947;SDS011;41113;41.882;12.530;2022-11-15T06:37:39;20.30;;;11.13;;
54947;SDS011;41113;41.882;12.530;2022-11-15T06:40:05;21.45;;;12.15;;
54947;SDS011;41113;41.882;12.530;2022-11-15T06:42:32;19.15;;;11.93;;
54947;SDS011;41113;41.882;12.530;2022-11-15T06:44:57;17.33;;;11.80;;
54947;SDS011;41113;41.882;12.530;2022-11-15T06:47:23;19.20;;;11.50;;
54947;SDS011;41113;41.882;12.530;2022-11-15T06:49:48;17.38;;;11.25;;
54947;SDS011;41113;41.882;12.530;2022-11-15T06:52:13;16.98;;;10.55;;
54947;SDS011;41113;41.882;12.530;2022-11-15T06:54:39;19.88;;;12.20;;
54947;SDS011;41113;41.882;12.530;2022-11-15T06:57:04;17.17;;;11.27;;
54947;SDS011;41113;41.882;12.530;2022-11-15T06:59:30;18.58;;;10.27;;
54947;SDS011;41113;41.882;12.530;2022-11-15T07:01:55;15.07;;;9.95;;
54947;SDS011;41113;41.882;12.530;2022-11-15T07:04:21;17.05;;;10.10;;
54947;SDS011;41113;41.882;12.530;2022-11-15T07:06:47;16.70;;;9.73;;
54947;SDS011;41113;41.882;12.530;2022-11-15T07:09:13;15.80;;;9.48;;
54947;SDS011;41113;41.882;12.530;2022-11-15T07:11:38;15.63;;;9.60;;
54947;SDS011;41113;41.882;12.530;2022-11-15T07:14:04;16.48;;;9.60;;
54947;SDS011;41113;41.882;12.530;2022-11-15T07:16:29;14.93;;;8.65;;
54947;SDS011;41113;41.882;12.530;2022-11-15T07:18:55;13.95;;;8.18;;
54947;SDS011;41113;41.882;12.530;2022-11-15T07:21:21;14.82;;;8.68;;
54947;SDS011;41113;41.882;12.530;2022-11-15T07:23:46;12.65;;;7.90;;
54947;SDS011;41113;41.882;12.530;2022-11-15T07:26:11;14.43;;;9.00;;
54947;SDS011;41113;41.882;12.530;2022-11-15T07:28:37;15.70;;;9.27;;
54947;SDS011;41113;41.882;12.530;2022-11-15T07:31:03;16.85;;;10.13;;
54947;SDS011;41113;41.882;12.530;2022-11-15T07:33:31;15.85;;;9.43;;
54947;SDS011;41113;41.882;12.530;2022-11-15T07:36:00;18.85;;;9.60;;
54947;SDS011;41113;41.882;12.530;2022-11-15T07:38:27;16.67;;;10.35;;
54947;SDS011;41113;41.882;12.530;2022-11-15T07:40:57;17.98;;;10.05;;
54947;SDS011;41113;41.882;12.530;2022-11-15T07:43:27;16.10;;;9.35;;
54947;SDS011;41113;41.882;12.530;2022-11-15T07:45:53;18.33;;;9.95;;
54947;SDS011;41113;41.882;12.530;2022-11-15T07:48:18;16.58;;;9.85;;
54947;SDS011;41113;41.882;12.530;2022-11-15T07:50:44;16.27;;;9.60;;
54947;SDS011;41113;41.882;12.530;2022-11-15T07:53:09;15.07;;;9.52;;
54947;SDS011;41113;41.882;12.530;2022-11-15T07:55:35;15.38;;;9.13;;
54947;SDS011;41113;41.882;12.530;2022-11-15T07:58:05;17.02;;;10.18;;
54947;SDS011;41113;41.882;12.530;2022-11-15T08:00:33;21.75;;;13.65;;
54947;SDS011;41113;41.882;12.530;2022-11-15T08:03:09;18.17;;;10.82;;
54947;SDS011;41113;41.882;12.530;2022-11-15T08:05:36;19.27;;;10.25;;
54947;SDS011;41113;41.882;12.530;2022-11-15T08:08:03;17.23;;;9.88;;
54947;SDS011;41113;41.882;12.530;2022-11-15T08:10:29;18.60;;;10.40;;
54947;SDS011;41113;41.882;12.530;2022-11-15T08:12:58;15.68;;;9.30;;
54947;SDS011;41113;41.882;12.530;2022-11-15T08:15:25;16.63;;;10.32;;
54947;SDS011;41113;41.882;12.530;2022-11-15T08:17:57;18.75;;;10.00;;
54947;SDS011;41113;41.882;12.530;2022-11-15T08:20:24;17.85;;;9.50;;
54947;SDS011;41113;41.882;12.530;2022-11-15T08:22:50;19.80;;;10.00;;
54947;SDS011;41113;41.882;12.530;2022-11-15T08:25:16;17.50;;;9.80;;
54947;SDS011;41113;41.882;12.530;2022-11-15T08:27:42;14.38;;;9.23;;
54947;SDS011;41113;41.882;12.530;2022-11-15T08:30:07;17.98;;;9.23;;
54947;SDS011;41113;41.882;12.530;2022-11-15T08:32:33;14.95;;;8.95;;
54947;SDS011;41113;41.882;12.530;2022-11-15T08:34:58;19.73;;;9.38;;
54947;SDS011;41113;41.882;12.530;2022-11-15T08:37:24;17.50;;;9.43;;
54947;SDS011;41113;41.882;12.530;2022-11-15T08:39:49;18.50;;;9.88;;
54947;SDS011;41113;41.882;12.530;2022-11-15T08:42:15;17.05;;;9.35;;
54947;SDS011;41113;41.882;12.530;2022-11-15T08:44:41;15.35;;;9.75;;
54947;SDS011;41113;41.882;12.530;2022-11-15T08:47:07;16.80;;;9.32;;
54947;SDS011;41113;41.882;12.530;2022-11-15T08:49:35;15.25;;;8.98;;
54947;SDS011;41113;41.882;12.530;2022-11-15T08:52:01;16.17;;;9.50;;
54947;SDS011;41113;41.882;12.530;2022-11-15T08:54:26;17.25;;;8.55;;
54947;SDS011;41113;41.882;12.530;2022-11-15T08:56:51;16.08;;;9.80;;
54947;SDS011;41113;41.882;12.530;2022-11-15T08:59:17;16.05;;;9.13;;
54947;SDS011;41113;41.882;12.530;2022-11-15T09:01:42;14.23;;;8.35;;
54947;SDS011;41113;41.882;12.530;2022-11-15T09:04:07;15.15;;;9.27;;
54947;SDS011;41113;41.882;12.530;2022-11-15T09:06:33;14.50;;;8.68;;
54947;SDS011;41113;41.882;12.530;2022-11-15T09:09:00;14.55;;;7.50;;
54947;SDS011;41113;41.882;12.530;2022-11-15T09:11:26;13.40;;;8.02;;
54947;SDS011;41113;41.882;12.530;2022-11-15T09:13:51;14.90;;;8.23;;
54947;SDS011;41113;41.882;12.530;2022-11-15T09:16:17;20.10;;;9.57;;
54947;SDS011;41113;41.882;12.530;2022-11-15T09:18:42;13.80;;;8.75;;
54947;SDS011;41113;41.882;12.530;2022-11-15T09:21:08;16.23;;;9.77;;
54947;SDS011;41113;41.882;12.530;2022-11-15T09:23:34;16.15;;;10.30;;
54947;SDS011;41113;41.882;12.530;2022-11-15T09:26:00;16.35;;;8.68;;
54947;SDS011;41113;41.882;12.530;2022-11-15T09:28:28;15.52;;;9.02;;
54947;SDS011;41113;41.882;12.530;2022-11-15T09:31:01;17.73;;;10.35;;
54947;SDS011;41113;41.882;12.530;2022-11-15T09:33:28;16.25;;;9.50;;
54947;SDS011;41113;41.882;12.530;2022-11-15T09:35:54;14.43;;;8.10;;
54947;SDS011;41113;41.882;12.530;2022-11-15T09:38:24;16.45;;;9.35;;
54947;SDS011;41113;41.882;12.530;2022-11-15T09:40:50;17.55;;;10.10;;
54947;SDS011;41113;41.882;12.530;2022-11-15T09:43:38;16.08;;;9.32;;
54947;SDS011;41113;41.882;12.530;2022-11-15T09:46:19;21.48;;;12.02;;
54947;SDS011;41113;41.882;12.530;2022-11-15T09:49:07;20.48;;;11.25;;
54947;SDS011;41113;41.882;12.530;2022-11-15T09:51:36;18.13;;;10.82;;
54947;SDS011;41113;41.882;12.530;2022-11-15T09:57:02;20.90;;;12.02;;
54947;SDS011;41113;41.882;12.530;2022-11-15T10:04:56;22.88;;;12.40;;
54947;SDS011;41113;41.882;12.530;2022-11-15T10:10:13;19.33;;;12.55;;
54947;SDS011;41113;41.882;12.530;2022-11-15T10:12:52;20.92;;;13.18;;
54947;SDS011;41113;41.882;12.530;2022-11-15T10:15:18;22.63;;;14.23;;
54947;SDS011;41113;41.882;12.530;2022-11-15T10:20:48;18.35;;;12.05;;
54947;SDS011;41113;41.882;12.530;2022-11-15T10:23:16;22.23;;;13.60;;
54947;SDS011;41113;41.882;12.530;2022-11-15T10:25:44;20.75;;;11.57;;
54947;SDS011;41113;41.882;12.530;2022-11-15T10:28:11;19.77;;;12.32;;
54947;SDS011;41113;41.882;12.530;2022-11-15T10:30:51;23.02;;;13.77;;
54947;SDS011;41113;41.882;12.530;2022-11-15T10:33:34;21.88;;;13.85;;
54947;SDS011;41113;41.882;12.530;2022-11-15T10:46:38;20.77;;;13.25;;
54947;SDS011;41113;41.882;12.530;2022-11-15T10:51:47;17.48;;;11.38;;
54947;SDS011;41113;41.882;12.530;2022-11-15T10:54:17;18.08;;;11.50;;
54947;SDS011;41113;41.882;12.530;2022-11-15T10:56:52;19.25;;;12.50;;
54947;SDS011;41113;41.882;12.530;2022-11-15T10:59:24;18.85;;;12.60;;
54947;SDS011;41113;41.882;12.530;2022-11-15T11:01:53;17.05;;;11.60;;
54947;SDS011;41113;41.882;12.530;2022-11-15T11:04:21;18.17;;;12.00;;
54947;SDS011;41113;41.882;12.530;2022-11-15T11:06:51;17.73;;;11.57;;
54947;SDS011;41113;41.882;12.530;2022-11-15T11:09:21;25.77;;;12.93;;
54947;SDS011;41113;41.882;12.530;2022-11-15T11:11:50;19.70;;;13.25;;
54947;SDS011;41113;41.882;12.530;2022-11-15T11:25:35;19.58;;;11.05;;
54947;SDS011;41113;41.882;12.530;2022-11-15T11:33:32;22.23;;;13.02;;
54947;SDS011;41113;41.882;12.530;2022-11-15T11:36:21;25.00;;;12.73;;
54947;SDS011;41113;41.882;12.530;2022-11-15T11:42:08;21.17;;;11.70;;
54947;SDS011;41113;41.882;12.530;2022-11-15T11:47:40;20.48;;;11.88;;
54947;SDS011;41113;41.882;12.530;2022-11-15T11:50:12;17.58;;;10.77;;
54947;SDS011;41113;41.882;12.530;2022-11-15T11:55:44;16.90;;;10.65;;
54947;SDS011;41113;41.882;12.530;2022-11-15T12:03:59;21.52;;;10.57;;
54947;SDS011;41113;41.882;12.530;2022-11-15T12:06:35;24.00;;;12.23;;
54947;SDS011;41113;41.882;12.530;2022-11-15T12:09:35;19.05;;;11.02;;
54947;SDS011;41113;41.882;12.530;2022-11-15T12:12:15;19.83;;;11.55;;
54947;SDS011;41113;41.882;12.530;2022-11-15T12:18:42;19.73;;;11.93;;
54947;SDS011;41113;41.882;12.530;2022-11-15T12:21:14;20.35;;;12.18;;
54947;SDS011;41113;41.882;12.530;2022-11-15T12:23:48;19.88;;;11.77;;
54947;SDS011;41113;41.882;12.530;2022-11-15T12:26:21;20.73;;;12.00;;
54947;SDS011;41113;41.882;12.530;2022-11-15T12:28:59;21.40;;;12.88;;
54947;SDS011;41113;41.882;12.530;2022-11-15T12:34:04;19.92;;;12.32;;
54947;SDS011;41113;41.882;12.530;2022-11-15T12:36:41;22.30;;;13.40;;
54947;SDS011;41113;41.882;12.530;2022-11-15T12:39:09;21.05;;;12.48;;
54947;SDS011;41113;41.882;12.530;2022-11-15T12:41:40;19.92;;;12.93;;
54947;SDS011;41113;41.882;12.530;2022-11-15T12:44:11;19.17;;;12.30;;
54947;SDS011;41113;41.882;12.530;2022-11-15T12:49:10;20.13;;;11.48;;
54947;SDS011;41113;41.882;12.530;2022-11-15T12:52:08;20.48;;;11.27;;
54947;SDS011;41113;41.882;12.530;2022-11-15T13:05:20;17.25;;;10.80;;
54947;SDS011;41113;41.882;12.530;2022-11-15T13:15:51;17.20;;;10.18;;
54947;SDS011;41113;41.882;12.530;2022-11-15T13:17:57;17.00;;;10.45;;
54947;SDS011;41113;41.882;12.530;2022-11-15T13:20:25;19.27;;;11.48;;
54947;SDS011;41113;41.882;12.530;2022-11-15T13:33:20;20.30;;;10.63;;
54947;SDS011;41113;41.882;12.530;2022-11-15T13:35:50;19.92;;;11.00;;
54947;SDS011;41113;41.882;12.530;2022-11-15T13:40:49;18.90;;;11.32;;
54947;SDS011;41113;41.882;12.530;2022-11-15T13:46:03;18.05;;;10.27;;
54947;SDS011;41113;41.882;12.530;2022-11-15T13:48:30;21.75;;;10.25;;
54947;SDS011;41113;41.882;12.530;2022-11-15T13:50:55;19.25;;;9.73;;
54947;SDS011;41113;41.882;12.530;2022-11-15T13:53:22;17.13;;;9.27;;
54947;SDS011;41113;41.882;12.530;2022-11-15T13:55:48;15.93;;;8.20;;
54947;SDS011;41113;41.882;12.530;2022-11-15T13:58:14;14.07;;;8.50;;
54947;SDS011;41113;41.882;12.530;2022-11-15T14:00:40;15.35;;;9.45;;
54947;SDS011;41113;41.882;12.530;2022-11-15T14:03:19;13.20;;;8.02;;
54947;SDS011;41113;41.882;12.530;2022-11-15T14:06:09;14.50;;;8.00;;
54947;SDS011;41113;41.882;12.530;2022-11-15T14:08:40;15.80;;;8.52;;
54947;SDS011;41113;41.882;12.530;2022-11-15T14:11:21;15.25;;;8.18;;
54947;SDS011;41113;41.882;12.530;2022-11-15T14:19:04;16.08;;;8.55;;
54947;SDS011;41113;41.882;12.530;2022-11-15T14:21:31;19.75;;;8.45;;
54947;SDS011;41113;41.882;12.530;2022-11-15T14:24:17;16.23;;;9.73;;
54947;SDS011;41113;41.882;12.530;2022-11-15T14:26:44;16.35;;;9.18;;
54947;SDS011;41113;41.882;12.530;2022-11-15T14:29:26;14.57;;;8.77;;
54947;SDS011;41113;41.882;12.530;2022-11-15T14:34:46;17.67;;;10.23;;
54947;SDS011;41113;41.882;12.530;2022-11-15T14:37:22;18.00;;;10.93;;
54947;SDS011;41113;41.882;12.530;2022-11-15T14:39:47;21.08;;;10.82;;
54947;SDS011;41113;41.882;12.530;2022-11-15T14:42:13;18.42;;;11.45;;
54947;SDS011;41113;41.882;12.530;2022-11-15T14:44:39;20.13;;;12.75;;
54947;SDS011;41113;41.882;12.530;2022-11-15T14:47:04;19.50;;;12.15;;
54947;SDS011;41113;41.882;12.530;2022-11-15T14:49:29;21.30;;;11.38;;
54947;SDS011;41113;41.882;12.530;2022-11-15T14:51:55;18.02;;;10.98;;
54947;SDS011;41113;41.882;12.530;2022-11-15T14:54:20;17.33;;;10.75;;
54947;SDS011;41113;41.882;12.530;2022-11-15T14:56:45;16.85;;;9.90;;
54947;SDS011;41113;41.882;12.530;2022-11-15T14:59:11;20.17;;;10.63;;
54947;SDS011;41113;41.882;12.530;2022-11-15T15:01:36;16.48;;;9.63;;
54947;SDS011;41113;41.882;12.530;2022-11-15T15:04:01;16.02;;;9.30;;
54947;SDS011;41113;41.882;12.530;2022-11-15T15:06:27;14.30;;;9.23;;
54947;SDS011;41113;41.882;12.530;2022-11-15T15:08:52;13.90;;;8.35;;
54947;SDS011;41113;41.882;12.530;2022-11-15T15:11:28;15.20;;;9.43;;
54947;SDS011;41113;41.882;12.530;2022-11-15T15:13:55;14.93;;;8.48;;
54947;SDS011;41113;41.882;12.530;2022-11-15T15:16:22;14.60;;;8.50;;
54947;SDS011;41113;41.882;12.530;2022-11-15T15:18:49;13.00;;;8.30;;
54947;SDS011;41113;41.882;12.530;2022-11-15T15:23:50;13.32;;;8.20;;
54947;SDS011;41113;41.882;12.530;2022-11-15T15:26:17;13.55;;;7.65;;
54947;SDS011;41113;41.882;12.530;2022-11-15T15:28:44;13.60;;;8.30;;
54947;SDS011;41113;41.882;12.530;2022-11-15T15:31:09;16.13;;;9.25;;
54947;SDS011;41113;41.882;12.530;2022-11-15T15:33:35;16.02;;;8.73;;
54947;SDS011;41113;41.882;12.530;2022-11-15T15:36:00;14.65;;;8.40;;
54947;SDS011;41113;41.882;12.530;2022-11-15T15:38:26;15.93;;;9.48;;
54947;SDS011;41113;41.882;12.530;2022-11-15T15:40:51;14.18;;;8.80;;
54947;SDS011;41113;41.882;12.530;2022-11-15T15:43:17;16.05;;;8.82;;
54947;SDS011;41113;41.882;12.530;2022-11-15T15:45:42;16.38;;;10.25;;
54947;SDS011;41113;41.882;12.530;2022-11-15T15:48:13;15.35;;;9.30;;
54947;SDS011;41113;41.882;12.530;2022-11-15T15:50:40;18.88;;;10.23;;
54947;SDS011;41113;41.882;12.530;2022-11-15T15:53:08;15.85;;;9.57;;
54947;SDS011;41113;41.882;12.530;2022-11-15T15:55:35;17.30;;;10.10;;
54947;SDS011;41113;41.882;12.530;2022-11-15T15:58:01;18.67;;;10.05;;
54947;SDS011;41113;41.882;12.530;2022-11-15T16:00:26;13.73;;;9.18;;
54947;SDS011;41113;41.882;12.530;2022-11-15T16:02:53;16.45;;;10.10;;
54947;SDS011;41113;41.882;12.530;2022-11-15T16:05:18;19.08;;;11.20;;
54947;SDS011;41113;41.882;12.530;2022-11-15T16:07:44;16.52;;;9.05;;
54947;SDS011;41113;41.882;12.530;2022-11-15T16:10:31;14.30;;;8.80;;
54947;SDS011;41113;41.882;12.530;2022-11-15T16:12:59;15.75;;;9.52;;
54947;SDS011;41113;41.882;12.530;2022-11-15T16:15:25;17.63;;;8.82;;
54947;SDS011;41113;41.882;12.530;2022-11-15T16:18:01;14.77;;;8.98;;
54947;SDS011;41113;41.882;12.530;2022-11-15T16:20:30;15.65;;;8.90;;
54947;SDS011;41113;41.882;12.530;2022-11-15T16:23:05;15.85;;;9.50;;
54947;SDS011;41113;41.882;12.530;2022-11-15T16:25:42;13.30;;;8.05;;
54947;SDS011;41113;41.882;12.530;2022-11-15T16:28:18;15.60;;;8.68;;
54947;SDS011;41113;41.882;12.530;2022-11-15T16:33:31;15.00;;;9.25;;
54947;SDS011;41113;41.882;12.530;2022-11-15T16:35:57;14.40;;;8.38;;
54947;SDS011;41113;41.882;12.530;2022-11-15T16:38:22;13.93;;;7.75;;
54947;SDS011;41113;41.882;12.530;2022-11-15T16:40:47;12.82;;;8.35;;
54947;SDS011;41113;41.882;12.530;2022-11-15T16:43:13;13.95;;;8.68;;
54947;SDS011;41113;41.882;12.530;2022-11-15T16:45:38;14.15;;;8.15;;
54947;SDS011;41113;41.882;12.530;2022-11-15T16:48:04;14.30;;;7.75;;
54947;SDS011;41113;41.882;12.530;2022-11-15T16:50:31;13.48;;;7.53;;